Terminal Aerodrome Forecast
Issued by NWS

Home | Current Version | Previous Version | Text Only | Print | Product List | Glossary On
Versions: 1 2 3 4 5 6 7 8 9 10 11 12 13 14 15
000
FTAK31 PAJN 232325
TAFAJN
TAF
PAJN 232325Z 2400/2424 12015G25KT 6SM -RA BKN025 OVC035
      TEMPO 2400/2404 5SM RA BR FEW015 BKN020 OVC030
     FM240600 14012KT P6SM -RA BKN035 OVC050
     FM241200 VRB05KT P6SM -SHRA BKN035 OVC050=

USA.gov is the U.S. government's official web portal to all federal, state and local government web resources and services.